createdAt,value
2018-12-24T00:01:33.079Z,10.77
2018-12-24T00:04:03.245Z,11.87
2018-12-24T00:06:33.363Z,11.33
2018-12-24T00:09:06.381Z,13.00
2018-12-24T00:11:37.524Z,12.20
2018-12-24T00:14:07.565Z,14.33
2018-12-24T00:16:39.082Z,14.30
2018-12-24T00:19:09.205Z,15.63
2018-12-24T00:21:43.030Z,15.27
2018-12-24T00:24:13.192Z,17.30
2018-12-24T00:26:44.967Z,16.73
2018-12-24T00:29:17.584Z,19.30
2018-12-24T00:31:47.671Z,16.67
2018-12-24T00:34:17.880Z,16.93
2018-12-24T00:36:48.193Z,17.00
2018-12-24T00:39:19.812Z,19.47
2018-12-24T00:41:49.887Z,16.93
2018-12-24T00:44:21.945Z,15.80
2018-12-24T00:46:52.118Z,16.57
2018-12-24T00:49:22.159Z,15.53
2018-12-24T00:51:52.309Z,19.20
2018-12-24T00:54:22.434Z,16.37
2018-12-24T00:56:52.778Z,15.67
2018-12-24T00:59:22.915Z,17.63
2018-12-24T01:01:53.013Z,18.93
2018-12-24T01:04:23.318Z,17.57
2018-12-24T01:06:53.431Z,18.33
2018-12-24T01:09:25.074Z,19.33
2018-12-24T01:11:55.148Z,20.63
2018-12-24T01:14:25.281Z,19.33
2018-12-24T01:16:55.407Z,22.13
2018-12-24T01:19:25.464Z,21.37
2018-12-24T01:21:55.601Z,20.87
2018-12-24T01:24:25.836Z,21.40
2018-12-24T01:26:55.949Z,20.00
2018-12-24T01:29:26.171Z,21.53
2018-12-24T01:32:01.415Z,25.53
2018-12-24T01:34:35.244Z,26.87
2018-12-24T01:37:05.505Z,28.33
2018-12-24T01:39:37.410Z,29.43
2018-12-24T01:42:07.792Z,24.53
2018-12-24T01:44:39.293Z,25.90
2018-12-24T01:47:11.193Z,24.93
2018-12-24T01:49:41.416Z,24.97
2018-12-24T01:52:11.596Z,27.77
2018-12-24T01:54:41.876Z,29.13
2018-12-24T01:57:11.994Z,29.00
2018-12-24T01:59:42.338Z,33.17
2018-12-24T02:02:12.508Z,29.63
2018-12-24T02:04:46.184Z,26.20
2018-12-24T02:07:23.524Z,25.67
2018-12-24T02:09:53.802Z,23.53
2018-12-24T02:12:23.896Z,21.50
2018-12-24T02:14:54.364Z,21.60
2018-12-24T02:17:24.428Z,18.90
2018-12-24T02:19:54.512Z,16.30
2018-12-24T02:22:24.761Z,15.43
2018-12-24T02:24:54.895Z,19.43
2018-12-24T02:27:25.165Z,23.20
2018-12-24T02:29:55.618Z,20.70
2018-12-24T02:32:25.706Z,29.97
2018-12-24T02:34:55.768Z,33.03
2018-12-24T02:37:26.100Z,35.27
2018-12-24T02:39:56.164Z,41.63
2018-12-24T02:42:28.136Z,46.40
2018-12-24T02:44:58.573Z,51.80
2018-12-24T02:47:28.675Z,56.30
2018-12-24T02:49:58.809Z,57.93
2018-12-24T02:52:29.203Z,60.37
2018-12-24T02:54:59.262Z,66.93
2018-12-24T02:57:29.524Z,63.37
2018-12-24T03:00:00.178Z,62.10
2018-12-24T03:02:30.266Z,64.53
2018-12-24T03:05:00.315Z,66.67
2018-12-24T03:07:32.720Z,56.60
2018-12-24T03:10:02.826Z,56.87
2018-12-24T03:12:32.979Z,56.80
2018-12-24T03:15:03.249Z,58.83
2018-12-24T03:17:33.499Z,53.33
2018-12-24T03:20:03.612Z,44.80
2018-12-24T03:22:33.774Z,48.87
2018-12-24T03:25:07.477Z,55.17
2018-12-24T03:27:37.818Z,53.83
2018-12-24T03:30:07.958Z,42.83
2018-12-24T03:32:38.098Z,52.67
2018-12-24T03:35:08.309Z,54.07
2018-12-24T03:37:38.459Z,45.63
2018-12-24T03:40:08.644Z,50.87
2018-12-24T03:42:39.102Z,43.87
2018-12-24T03:45:09.160Z,52.10
2018-12-24T03:47:39.416Z,49.87
2018-12-24T03:50:09.494Z,48.57
2018-12-24T03:52:39.803Z,48.93
2018-12-24T03:55:09.953Z,49.03
2018-12-24T03:57:40.195Z,38.90
2018-12-24T04:00:10.316Z,36.97
2018-12-24T04:02:45.533Z,44.20
2018-12-24T04:05:15.632Z,38.43
2018-12-24T04:07:45.791Z,43.83
2018-12-24T04:10:17.933Z,43.73
2018-12-24T04:12:48.372Z,37.97
2018-12-24T04:15:20.850Z,44.90
2018-12-24T04:17:51.036Z,44.27
2018-12-24T04:20:21.113Z,44.10
2018-12-24T04:22:51.278Z,37.33
2018-12-24T04:25:23.886Z,43.80
2018-12-24T04:27:53.989Z,41.60
2018-12-24T04:30:26.606Z,44.03
2018-12-24T04:32:56.713Z,41.83
2018-12-24T04:35:26.805Z,37.37
2018-12-24T04:37:56.941Z,46.43
2018-12-24T04:40:27.209Z,46.33
2018-12-24T04:42:57.317Z,42.50
2018-12-24T04:45:27.713Z,38.47
2018-12-24T04:47:57.863Z,33.60
2018-12-24T04:50:27.909Z,31.97
2018-12-24T04:52:58.360Z,39.20
2018-12-24T04:55:29.483Z,33.03
2018-12-24T04:57:59.585Z,28.87
2018-12-24T05:00:29.683Z,31.87
2018-12-24T05:02:59.894Z,36.03
2018-12-24T05:05:30.225Z,32.30
2018-12-24T05:08:00.386Z,28.40
2018-12-24T05:10:30.541Z,35.43
2018-12-24T05:13:00.709Z,24.97
2018-12-24T05:15:30.908Z,24.40
2018-12-24T05:18:01.056Z,24.73
2018-12-24T05:20:31.340Z,34.03
2018-12-24T05:23:01.466Z,24.73
2018-12-24T05:25:31.624Z,31.03
2018-12-24T05:28:01.808Z,26.20
2018-12-24T05:30:32.233Z,23.10
2018-12-24T05:33:02.399Z,30.93
2018-12-24T05:35:32.463Z,31.50
2018-12-24T05:38:02.780Z,27.60
2018-12-24T05:40:33.104Z,26.77
2018-12-24T05:43:04.741Z,31.73
2018-12-24T05:45:34.907Z,33.60
2018-12-24T05:48:04.971Z,28.70
2018-12-24T05:50:35.034Z,22.97
2018-12-24T05:53:07.071Z,36.07
2018-12-24T05:55:37.122Z,31.30
2018-12-24T05:58:07.264Z,44.67
2018-12-24T06:00:37.571Z,39.90
2018-12-24T06:03:07.644Z,35.63
2018-12-24T06:05:37.953Z,44.80
2018-12-24T06:08:08.038Z,35.40
2018-12-24T06:10:38.187Z,29.97
2018-12-24T06:13:08.353Z,30.80
2018-12-24T06:15:38.608Z,39.00
2018-12-24T06:18:10.834Z,37.10
2018-12-24T06:20:40.978Z,28.57
2018-12-24T06:23:13.296Z,32.00
2018-12-24T06:25:43.358Z,36.63
2018-12-24T06:28:13.483Z,36.27
2018-12-24T06:30:43.733Z,39.77
2018-12-24T06:33:13.941Z,49.33
2018-12-24T06:35:44.134Z,38.90
2018-12-24T06:38:14.313Z,41.97
2018-12-24T06:40:44.434Z,35.27
2018-12-24T06:43:14.855Z,31.43
2018-12-24T06:45:45.235Z,43.93
2018-12-24T06:48:15.365Z,46.17
2018-12-24T06:50:45.620Z,42.53
2018-12-24T06:53:15.768Z,39.60
2018-12-24T06:55:46.906Z,35.97
2018-12-24T06:58:16.947Z,41.87
2018-12-24T07:00:48.616Z,36.00
2018-12-24T07:03:18.675Z,35.87
2018-12-24T07:05:48.728Z,36.77
2018-12-24T07:08:18.781Z,31.80
2018-12-24T07:10:48.845Z,33.27
2018-12-24T07:13:19.106Z,32.37
2018-12-24T07:15:49.177Z,45.30
2018-12-24T07:18:19.362Z,35.23
2018-12-24T07:20:49.517Z,34.87
2018-12-24T07:23:20.037Z,35.97
2018-12-24T07:25:50.213Z,34.87
2018-12-24T07:28:23.970Z,39.73
2018-12-24T07:30:54.108Z,35.00
2018-12-24T07:33:24.256Z,44.67
2018-12-24T07:35:54.303Z,49.30
2018-12-24T07:38:24.812Z,46.10
2018-12-24T07:40:55.621Z,36.37
2018-12-24T07:43:25.672Z,46.57
2018-12-24T07:45:55.731Z,39.13
2018-12-24T07:48:25.863Z,32.63
2018-12-24T07:50:57.206Z,29.60
2018-12-24T07:53:27.245Z,32.30
2018-12-24T07:55:57.318Z,35.90
2018-12-24T07:58:27.880Z,33.43
2018-12-24T08:00:58.013Z,36.93
2018-12-24T08:03:28.147Z,33.73
2018-12-24T08:05:58.264Z,28.93
2018-12-24T08:08:28.325Z,24.93
2018-12-24T08:11:00.203Z,26.70
2018-12-24T08:13:30.763Z,25.97
2018-12-24T08:16:00.880Z,26.90
2018-12-24T08:18:30.994Z,26.70
2018-12-24T08:21:01.254Z,28.97
2018-12-24T08:23:31.357Z,23.40
2018-12-24T08:26:03.671Z,21.87
2018-12-24T08:28:36.907Z,22.53
2018-12-24T08:31:07.067Z,27.30
2018-12-24T08:33:38.504Z,23.70
2018-12-24T08:36:08.736Z,21.37
2018-12-24T08:38:38.865Z,19.77
2018-12-24T08:41:09.183Z,19.30
2018-12-24T08:43:39.291Z,21.20
2018-12-24T08:46:09.487Z,15.70
2018-12-24T08:48:39.884Z,19.10
2018-12-24T08:51:09.935Z,15.83
2018-12-24T08:53:40.248Z,15.30
2018-12-24T08:56:10.324Z,22.63
2018-12-24T08:58:40.537Z,18.43
2018-12-24T09:01:10.721Z,26.70
2018-12-24T09:03:40.927Z,17.90
2018-12-24T09:06:11.172Z,17.10
2018-12-24T09:08:41.428Z,16.90
2018-12-24T09:11:11.661Z,13.87
2018-12-24T09:13:41.821Z,17.70
2018-12-24T09:16:16.582Z,16.00
2018-12-24T09:18:46.669Z,13.77
2018-12-24T09:21:16.839Z,14.77
2018-12-24T09:23:46.965Z,13.00
2018-12-24T09:26:17.199Z,13.97
2018-12-24T09:28:49.104Z,14.30
2018-12-24T09:31:19.606Z,14.50
2018-12-24T09:33:49.804Z,12.80
2018-12-24T09:36:19.853Z,12.03
2018-12-24T09:38:50.222Z,8.57
2018-12-24T09:41:20.402Z,7.37
2018-12-24T09:43:50.586Z,7.13
2018-12-24T09:46:20.716Z,7.77
2018-12-24T09:48:51.025Z,9.17
2018-12-24T09:51:21.277Z,7.10
2018-12-24T09:53:51.471Z,7.93
2018-12-24T09:56:21.614Z,8.57
2018-12-24T09:58:51.837Z,7.87
2018-12-24T10:01:22.208Z,11.67
2018-12-24T10:04:02.674Z,9.50
2018-12-24T10:06:34.891Z,10.17
2018-12-24T10:09:10.051Z,10.70
2018-12-24T10:11:40.198Z,8.23
2018-12-24T10:14:10.479Z,7.70
2018-12-24T10:16:40.629Z,9.10
2018-12-24T10:19:10.932Z,8.13
2018-12-24T10:21:41.161Z,8.40
2018-12-24T10:24:11.505Z,10.17
2018-12-24T10:26:41.717Z,9.03
2018-12-24T10:29:12.001Z,6.63
2018-12-24T10:31:42.113Z,7.07
2018-12-24T10:34:12.366Z,7.13
2018-12-24T10:36:42.516Z,7.60
2018-12-24T10:39:12.638Z,5.60
2018-12-24T10:41:44.754Z,6.07
2018-12-24T10:44:15.081Z,6.97
2018-12-24T10:46:45.707Z,6.10
2018-12-24T10:49:16.180Z,6.90
2018-12-24T10:51:46.269Z,6.53
2018-12-24T10:54:16.566Z,6.13
2018-12-24T10:56:46.791Z,6.47
2018-12-24T10:59:16.994Z,5.40
2018-12-24T11:01:47.113Z,6.57
2018-12-24T11:04:17.306Z,4.90
2018-12-24T11:06:47.800Z,6.20
2018-12-24T11:09:17.902Z,6.00
2018-12-24T11:11:48.033Z,6.53
2018-12-24T11:14:18.232Z,6.07
2018-12-24T11:16:48.482Z,6.87
2018-12-24T11:19:18.558Z,4.37
2018-12-24T11:21:48.759Z,4.43
2018-12-24T11:24:20.703Z,3.87
2018-12-24T11:26:50.760Z,7.00
2018-12-24T11:29:21.369Z,5.17
2018-12-24T11:31:51.432Z,5.53
2018-12-24T11:34:22.637Z,6.17
2018-12-24T11:36:52.798Z,3.50
2018-12-24T11:39:23.182Z,4.63
2018-12-24T11:41:53.234Z,4.97
2018-12-24T11:44:23.404Z,3.97
2018-12-24T11:46:53.573Z,3.97
2018-12-24T11:49:23.841Z,7.53
2018-12-24T11:51:53.946Z,3.77
2018-12-24T11:54:24.242Z,6.00
2018-12-24T11:56:54.420Z,4.23
2018-12-24T11:59:24.628Z,6.10
2018-12-24T12:01:54.887Z,4.17
2018-12-24T12:04:25.254Z,6.00
2018-12-24T12:06:55.340Z,4.53
2018-12-24T12:09:25.429Z,4.07
2018-12-24T12:11:55.578Z,3.30
2018-12-24T12:14:25.877Z,4.77
2018-12-24T12:16:56.095Z,4.00
2018-12-24T12:19:26.275Z,5.33
2018-12-24T12:21:56.351Z,5.20
2018-12-24T12:24:26.602Z,3.13
2018-12-24T12:26:56.778Z,5.37
2018-12-24T12:29:27.103Z,4.07
2018-12-24T12:31:57.338Z,6.07
2018-12-24T12:34:27.590Z,6.33
2018-12-24T12:36:57.624Z,2.40
2018-12-24T12:39:27.893Z,3.60
2018-12-24T12:41:58.034Z,2.90
2018-12-24T12:44:28.263Z,3.00
2018-12-24T12:46:58.442Z,5.57
2018-12-24T12:49:28.648Z,3.47
2018-12-24T12:51:58.718Z,2.67
2018-12-24T12:54:28.942Z,1.97
2018-12-24T12:56:59.112Z,3.93
2018-12-24T12:59:29.462Z,2.60
2018-12-24T13:01:59.572Z,2.10
2018-12-24T13:04:29.833Z,2.37
2018-12-24T13:06:59.926Z,2.93
2018-12-24T13:09:30.129Z,4.30
2018-12-24T13:12:00.324Z,1.60
2018-12-24T13:14:30.638Z,2.30
2018-12-24T13:17:02.821Z,1.90
2018-12-24T13:19:35.437Z,1.80
2018-12-24T13:22:07.567Z,2.97
2018-12-24T13:24:37.744Z,1.90
2018-12-24T13:27:07.947Z,2.53
2018-12-24T13:29:38.170Z,2.33
2018-12-24T13:32:08.206Z,3.73
2018-12-24T13:34:38.282Z,2.30
2018-12-24T13:37:08.391Z,2.23
2018-12-24T13:39:38.517Z,2.60
2018-12-24T13:42:08.650Z,2.27
2018-12-24T13:44:38.819Z,1.93
2018-12-24T13:47:09.006Z,2.03
2018-12-24T13:49:39.364Z,2.33
2018-12-24T13:52:09.397Z,1.70
2018-12-24T13:54:39.606Z,2.10
2018-12-24T13:57:09.817Z,2.63
2018-12-24T13:59:40.080Z,2.80
2018-12-24T14:02:10.495Z,3.27
2018-12-24T14:04:40.646Z,4.03
2018-12-24T14:07:10.765Z,3.17
2018-12-24T14:09:40.939Z,3.27
2018-12-24T14:12:10.986Z,3.20
2018-12-24T14:14:41.327Z,2.43
2018-12-24T14:17:12.807Z,2.90
2018-12-24T14:19:42.947Z,2.30
2018-12-24T14:22:14.701Z,3.03
2018-12-24T14:24:45.165Z,2.83
2018-12-24T14:27:15.354Z,4.33
2018-12-24T14:29:45.852Z,2.20
2018-12-24T14:32:15.887Z,3.40
2018-12-24T14:34:46.024Z,3.30
2018-12-24T14:37:17.377Z,1.77
2018-12-24T14:39:47.639Z,3.03
2018-12-24T14:42:17.822Z,3.23
2018-12-24T14:44:47.996Z,2.83
2018-12-24T14:47:18.075Z,3.10
2018-12-24T14:49:48.251Z,4.27
2018-12-24T14:52:18.463Z,3.17
2018-12-24T14:54:48.858Z,2.83
2018-12-24T14:57:18.899Z,2.50
2018-12-24T14:59:49.008Z,3.00
2018-12-24T15:02:19.117Z,3.67
2018-12-24T15:04:50.093Z,3.90
2018-12-24T15:07:20.239Z,3.67
2018-12-24T15:09:50.541Z,4.30
2018-12-24T15:12:20.885Z,2.77
2018-12-24T15:14:51.129Z,2.20
2018-12-24T15:17:21.163Z,1.90
2018-12-24T15:19:51.302Z,2.20
2018-12-24T15:22:21.394Z,3.60
2018-12-24T15:24:51.627Z,3.03
2018-12-24T15:27:23.410Z,2.13
2018-12-24T15:29:53.574Z,2.20
2018-12-24T15:32:23.702Z,2.23
2018-12-24T15:34:53.774Z,2.00
2018-12-24T15:37:23.868Z,1.97
2018-12-24T15:39:54.516Z,2.10
2018-12-24T15:42:24.601Z,3.27
2018-12-24T15:44:58.324Z,2.87
2018-12-24T15:47:31.497Z,4.50
2018-12-24T15:50:01.599Z,7.10
2018-12-24T15:52:31.646Z,6.17
2018-12-24T15:55:01.767Z,5.07
2018-12-24T15:57:32.070Z,4.13
2018-12-24T16:00:02.227Z,3.77
2018-12-24T16:02:32.392Z,4.60
2018-12-24T16:05:02.575Z,7.00
2018-12-24T16:07:32.851Z,7.70
2018-12-24T16:10:03.099Z,7.07
2018-12-24T16:12:33.216Z,6.60
2018-12-24T16:15:03.412Z,7.73
2018-12-24T16:17:37.161Z,8.60
2018-12-24T16:20:07.015Z,11.57
2018-12-24T16:22:37.284Z,11.70
2018-12-24T16:25:07.357Z,10.03
2018-12-24T16:27:37.422Z,9.90
2018-12-24T16:30:10.213Z,9.80
2018-12-24T16:32:40.325Z,10.40
2018-12-24T16:35:10.400Z,11.90
2018-12-24T16:37:40.515Z,9.50
2018-12-24T16:40:10.655Z,10.30
2018-12-24T16:42:40.897Z,11.50
2018-12-24T16:45:11.403Z,8.50
2018-12-24T16:47:41.539Z,8.80
2018-12-24T16:50:11.723Z,13.00
2018-12-24T16:52:43.897Z,10.27
2018-12-24T16:55:16.050Z,8.80
2018-12-24T16:57:46.111Z,14.57
2018-12-24T17:00:16.161Z,17.97
2018-12-24T17:02:46.780Z,14.87
2018-12-24T17:05:17.336Z,14.50
2018-12-24T17:07:47.398Z,14.17
2018-12-24T17:10:17.567Z,15.57
2018-12-24T17:12:47.727Z,14.60
2018-12-24T17:15:18.016Z,15.00
2018-12-24T17:17:48.163Z,15.60
2018-12-24T17:20:20.195Z,17.43
2018-12-24T17:22:50.476Z,16.87
2018-12-24T17:25:20.892Z,13.90
2018-12-24T17:27:51.010Z,15.00
2018-12-24T17:30:21.391Z,13.33
2018-12-24T17:32:53.828Z,15.40
2018-12-24T17:35:23.978Z,13.63
2018-12-24T17:37:54.131Z,11.33
2018-12-24T17:40:26.742Z,13.27
2018-12-24T17:42:56.944Z,14.73
2018-12-24T17:45:27.098Z,12.43
2018-12-24T17:47:57.314Z,11.30
2018-12-24T17:50:27.959Z,13.40
2018-12-24T17:52:58.057Z,11.30
2018-12-24T17:55:28.217Z,13.20
2018-12-24T17:57:58.723Z,13.70
2018-12-24T18:00:28.829Z,14.03
2018-12-24T18:02:58.987Z,13.93
2018-12-24T18:05:29.065Z,13.77
2018-12-24T18:08:02.137Z,12.63
2018-12-24T18:10:32.477Z,17.07
2018-12-24T18:13:02.594Z,15.90
2018-12-24T18:15:32.852Z,16.87
2018-12-24T18:18:03.073Z,16.60
2018-12-24T18:20:33.223Z,20.30
2018-12-24T18:23:12.144Z,15.40
2018-12-24T18:25:45.861Z,17.47
2018-12-24T18:28:16.091Z,18.40
2018-12-24T18:30:47.716Z,17.20
2018-12-24T18:33:20.099Z,17.33
2018-12-24T18:35:50.188Z,18.97
2018-12-24T18:38:20.875Z,22.73
2018-12-24T18:40:51.502Z,16.80
2018-12-24T18:43:21.871Z,16.90
2018-12-24T18:45:55.331Z,14.50
2018-12-24T18:48:25.538Z,14.47
2018-12-24T18:50:56.082Z,17.37
2018-12-24T18:53:26.736Z,21.30
2018-12-24T18:55:59.250Z,18.33
2018-12-24T18:58:29.352Z,20.50
2018-12-24T19:00:59.654Z,22.07
2018-12-24T19:03:29.731Z,20.13
2018-12-24T19:06:01.733Z,18.67
2018-12-24T19:08:32.069Z,18.20
2018-12-24T19:11:03.640Z,18.30
2018-12-24T19:13:33.683Z,18.53
2018-12-24T19:16:03.969Z,18.93
2018-12-24T19:18:34.040Z,19.47
2018-12-24T19:21:04.219Z,18.67
2018-12-24T19:23:34.438Z,16.53
2018-12-24T19:26:04.593Z,17.47
2018-12-24T19:28:34.757Z,17.93
2018-12-24T19:31:04.830Z,17.30
2018-12-24T19:33:36.849Z,17.57
2018-12-24T19:36:07.502Z,17.13
2018-12-24T19:38:37.691Z,17.90
2018-12-24T19:41:08.508Z,18.37
2018-12-24T19:43:38.695Z,19.50
2018-12-24T19:46:10.819Z,18.53
2018-12-24T19:48:41.146Z,16.37
2018-12-24T19:51:11.301Z,16.43
2018-12-24T19:53:41.980Z,17.67
2018-12-24T19:56:12.033Z,17.90
2018-12-24T19:58:42.200Z,16.90
2018-12-24T20:01:14.144Z,18.13
2018-12-24T20:03:46.632Z,18.03
2018-12-24T20:06:16.691Z,17.33
2018-12-24T20:08:47.323Z,25.13
2018-12-24T20:11:17.464Z,23.30
2018-12-24T20:13:48.278Z,23.47
2018-12-24T20:16:18.393Z,23.87
2018-12-24T20:18:48.446Z,25.00
2018-12-24T20:21:18.590Z,21.90
2018-12-24T20:23:51.151Z,26.90
2018-12-24T20:26:21.310Z,25.27
2018-12-24T20:28:51.386Z,23.77
2018-12-24T20:31:21.579Z,28.23
2018-12-24T20:33:51.833Z,34.90
2018-12-24T20:36:22.098Z,34.33
2018-12-24T20:38:52.139Z,30.90
2018-12-24T20:41:22.233Z,32.70
2018-12-24T20:43:52.249Z,28.20
2018-12-24T20:46:22.412Z,26.07
2018-12-24T20:48:52.659Z,25.80
2018-12-24T20:51:22.930Z,29.20
2018-12-24T20:53:54.727Z,29.90
2018-12-24T20:56:24.805Z,26.83
2018-12-24T20:58:55.552Z,41.10
2018-12-24T21:01:25.706Z,35.63
2018-12-24T21:03:55.757Z,31.77
2018-12-24T21:06:26.032Z,36.77
2018-12-24T21:08:56.144Z,38.87
2018-12-24T21:11:26.458Z,35.73
2018-12-24T21:13:56.639Z,36.50
2018-12-24T21:16:26.777Z,33.83
2018-12-24T21:18:57.055Z,28.50
2018-12-24T21:21:27.735Z,32.10
2018-12-24T21:24:01.057Z,28.17
2018-12-24T21:26:31.206Z,26.00
2018-12-24T21:29:01.240Z,29.27
2018-12-24T21:31:31.390Z,27.63
2018-12-24T21:34:01.533Z,26.23
2018-12-24T21:36:32.077Z,24.20
2018-12-24T21:39:02.122Z,28.93
2018-12-24T21:41:32.351Z,30.00
2018-12-24T21:44:02.894Z,29.40
2018-12-24T21:46:35.299Z,27.53
2018-12-24T21:49:05.426Z,25.83
2018-12-24T21:51:36.364Z,25.60
2018-12-24T21:54:06.577Z,26.97
2018-12-24T21:56:36.801Z,25.63
2018-12-24T21:59:07.888Z,26.87
2018-12-24T22:01:38.114Z,26.70
2018-12-24T22:04:11.747Z,23.90
2018-12-24T22:06:41.917Z,24.50
2018-12-24T22:09:12.733Z,27.53
2018-12-24T22:11:54.882Z,26.30
2018-12-24T22:14:24.920Z,24.13
2018-12-24T22:16:55.014Z,26.23
2018-12-24T22:19:25.161Z,28.67
2018-12-24T22:21:55.367Z,30.07
2018-12-24T22:24:25.510Z,29.07
2018-12-24T22:26:57.477Z,29.77
2018-12-24T22:29:27.576Z,29.57
2018-12-24T22:31:58.414Z,29.27
2018-12-24T22:34:28.613Z,28.87
2018-12-24T22:36:58.735Z,29.20
2018-12-24T22:39:30.956Z,32.70
2018-12-24T22:42:03.693Z,29.90
2018-12-24T22:44:36.823Z,31.17
2018-12-24T22:47:07.034Z,27.50
2018-12-24T22:49:37.342Z,23.23
2018-12-24T22:52:07.496Z,32.60
2018-12-24T22:54:39.269Z,27.03
2018-12-24T22:57:15.097Z,25.97
2018-12-24T22:59:45.226Z,23.20
2018-12-24T23:02:18.785Z,23.43
2018-12-24T23:04:48.827Z,24.30
2018-12-24T23:07:21.136Z,24.90
2018-12-24T23:09:51.193Z,23.87
2018-12-24T23:12:22.733Z,24.17
2018-12-24T23:14:53.403Z,24.33
2018-12-24T23:17:25.108Z,22.67
2018-12-24T23:19:55.324Z,24.17
2018-12-24T23:22:25.488Z,28.40
2018-12-24T23:24:58.264Z,24.97
2018-12-24T23:27:28.886Z,25.50
2018-12-24T23:29:58.958Z,24.30
2018-12-24T23:32:29.389Z,22.90
2018-12-24T23:34:59.537Z,24.20
2018-12-24T23:37:29.611Z,24.57
2018-12-24T23:39:59.783Z,23.97
2018-12-24T23:42:29.928Z,24.70
2018-12-24T23:45:00.358Z,24.37
2018-12-24T23:47:32.553Z,27.07
2018-12-24T23:50:02.605Z,22.80
2018-12-24T23:52:32.859Z,25.37
2018-12-24T23:55:03.071Z,25.80
2018-12-24T23:57:33.252Z,25.20
